Latest Coastal Weather Observations for McCluer Island

IDD60701

Issued at 2:21 pm CST Thursday 30 June 2016 (issued every 10 minutes, with the page automatically refreshed every 10 minutes)

About coastal observations | Map of coastal stations | Coastal observations for NT | Marine services | Other Formats
Station Details ID: 014274 Name: MCCLUER ISLAND Lat: -11.05 Lon: 132.98 Height: 1.4 m
Data from the previous 72 hours. | See also: Recent months at McCluer Island
Date/Time
CST
Temp
°C
Wind Pressure Rain since
9am
mm
Weather Cloud Vis
km
Sea
Height
m
Swell
Dir  Spd
kts
Gust
kts
hPa Trend Height
m
Period
s
Dir
30/02:00pm 28.4 ESE 21 25 1012.7 - 0.0 - - - - - - -
30/01:30pm 28.2 ESE 21 25 1013.2 - 0.0 - - - - - - -
30/01:00pm 27.9 ESE 23 27 1013.6 - 0.0 - - - - - - -
30/12:30pm 28.2 ESE 21 26 1014.0 - 0.0 - - - - - - -
30/12:00pm 27.3 ESE 21 24 1014.4 - 0.0 - - - - - - -
30/11:30am 27.7 ESE 19 23 1014.8 - 0.0 - - - - - - -
30/11:00am 27.6 ESE 17 21 1015.1 - 0.0 - - - - - - -
30/10:30am 27.4 ESE 17 22 1015.4 - 0.0 - - - - - - -
30/10:00am 27.2 ESE 18 22 1015.8 - 0.0 - - - - - - -
30/09:30am 27.3 SE 18 22 1015.8 - 0.0 - - - - - - -
30/09:00am 27.1 ESE 17 21 1015.9 - 0.0 - - - - - - -
30/08:30am 26.6 SE 15 19 1015.7 - 0.0 - - - - - - -
30/08:00am 26.2 SE 14 19 1015.3 - 0.0 - - - - - - -
30/07:30am 25.5 SE 14 21 1014.9 - 0.0 - - - - - - -
30/07:00am 25.5 SE 15 21 1014.8 - 0.0 - - - - - - -
30/06:30am 25.4 SE 15 22 1014.2 - 0.0 - - - - - - -
30/06:00am 25.7 SE 16 21 1014.1 - 0.0 - - - - - - -
30/05:30am 25.7 SE 15 19 1014.0 - 0.0 - - - - - - -
30/05:00am 25.4 SE 12 17 1014.0 - 0.0 - - - - - - -
30/04:30am 25.8 SE 14 19 1013.9 - 0.0 - - - - - - -
30/04:00am 25.9 SE 15 19 1013.8 - 0.0 - - - - - - -
30/03:30am 26.2 SE 15 19 1013.9 - 0.0 - - - - - - -
30/03:00am 26.2 SE 14 19 1013.9 - 0.0 - - - - - - -
30/02:30am 26.3 ESE 17 21 1014.2 - 0.0 - - - - - - -
30/02:00am 26.6 SE 14 19 1014.3 - 0.0 - - - - - - -
30/01:30am 26.8 SE 16 23 1014.4 - 0.0 - - - - - - -
30/01:00am 27.0 ESE 15 22 1014.5 - 0.0 - - - - - - -
30/12:30am 27.1 ESE 17 21 1014.5 - 0.0 - - - - - - -
30/12:00am 27.3 ESE 16 20 1014.6 - 0.0 - - - - - - -
 
Date/Time
CST
Temp
°C
Wind Pressure Rain since
9am
mm
Weather Cloud Vis
km
Sea
Height
m
Swell
Dir  Spd
kts
Gust
kts
hPa Trend Height
m
Period
s
Dir
29/11:30pm 27.5 ESE 19 22 1014.6 - 0.0 - - - - - - -
29/11:00pm 27.7 ESE 21 23 1014.6 - 0.0 - - - - - - -
29/10:30pm 27.6 E 20 23 1014.7 - 0.0 - - - - - - -
29/10:00pm 27.7 E 21 24 1014.7 - 0.0 - - - - - - -
29/09:30pm 27.7 E 20 23 1014.6 - 0.0 - - - - - - -
29/09:00pm 27.7 E 22 25 1014.5 - 0.0 - - - - - - -
29/08:30pm 27.8 E 22 26 1014.1 - 0.0 - - - - - - -
29/08:00pm 27.7 E 24 29 1013.7 - 0.0 - - - - - - -
29/07:30pm 27.7 E 21 26 1013.4 - 0.0 - - - - - - -
29/07:00pm 27.7 ESE 20 24 1013.1 - 0.0 - - - - - - -
29/06:30pm 27.6 E 19 22 1012.8 - 0.0 - - - - - - -
29/06:00pm 27.6 E 18 22 1012.6 - 0.0 - - - - - - -
29/05:30pm 27.7 E 19 22 1012.4 - 0.0 - - - - - - -
29/05:00pm 27.7 E 20 23 1012.2 - 0.0 - - - - - - -
29/04:30pm 27.7 E 20 24 1012.1 - 0.0 - - - - - - -
29/04:00pm 27.9 ESE 21 25 1012.0 - 0.0 - - - - - - -
29/03:30pm 27.6 ESE 20 23 1012.2 - 0.0 - - - - - - -
29/03:00pm 27.8 ESE 22 27 1012.4 - 0.0 - - - - - - -
29/02:30pm 28.1 ESE 20 25 1012.7 - 0.0 - - - - - - -
29/02:00pm 27.9 ESE 21 25 1013.1 - 0.0 - - - - - - -
29/01:30pm 28.8 ESE 20 24 1013.4 - 0.0 - - - - - - -
29/01:00pm 27.5 ESE 20 26 1013.6 - 0.0 - - - - - - -
29/12:30pm 27.2 ESE 22 26 1014.2 - 0.0 - - - - - - -
29/12:00pm 26.7 ESE 23 26 1014.7 - 0.0 - - - - - - -
29/11:30am 26.5 ESE 22 27 1015.1 - 0.0 - - - - - - -
29/11:00am 27.5 ESE 21 25 1015.4 - 0.0 - - - - - - -
29/10:30am 27.4 ESE 21 30 1015.6 - 0.0 - - - - - - -
29/10:00am 26.8 ESE 21 28 1015.7 - 0.0 - - - - - - -
29/09:30am 26.8 ESE 23 31 1015.7 - 0.0 - - - - - - -
29/09:00am 26.8 ESE 23 29 1015.6 - 0.0 - - - - - - -
29/08:30am 26.4 ESE 25 29 1015.5 - 0.0 - - - - - - -
29/08:00am 26.1 ESE 20 25 1015.2 - 0.0 - - - - - - -
29/07:30am 25.3 ESE 20 24 1014.8 - 0.0 - - - - - - -
29/07:00am 24.9 ESE 17 21 1014.6 - 0.0 - - - - - - -
29/06:30am 24.6 SE 14 19 1014.4 - 0.0 - - - - - - -
29/06:00am 24.7 SE 15 19 1014.3 - 0.0 - - - - - - -
29/05:30am 24.8 SE 15 21 1014.3 - 0.0 - - - - - - -
29/05:00am 24.9 SE 15 20 1014.2 - 0.0 - - - - - - -
29/04:30am 25.5 ESE 18 23 1014.2 - 0.0 - - - - - - -
29/04:00am 25.4 SE 16 22 1014.2 - 0.0 - - - - - - -
29/03:30am 25.6 SE 17 21 1014.2 - 0.0 - - - - - - -
29/03:00am 25.8 SE 17 23 1014.3 - 0.0 - - - - - - -
29/02:30am 26.3 ESE 20 27 1014.5 - 0.0 - - - - - - -
29/02:00am 26.4 SE 20 26 1014.6 - 0.0 - - - - - - -
29/01:30am 26.4 ESE 21 28 1014.6 - 0.0 - - - - - - -
29/01:00am 26.7 SE 20 28 1014.6 - 0.0 - - - - - - -
29/12:30am 27.0 ESE 22 28 1014.5 - 0.0 - - - - - - -
29/12:00am 27.1 ESE 22 29 1014.6 - 0.0 - - - - - - -
 
Date/Time
CST
Temp
°C
Wind Pressure Rain since
9am
mm
Weather Cloud Vis
km
Sea
Height
m
Swell
Dir  Spd
kts
Gust
kts
hPa Trend Height
m
Period
s
Dir
28/11:30pm 27.6 ESE 23 29 1014.3 - 0.0 - - - - - - -
28/11:03pm 28.0 ESE 23 33 1014.3 - 0.0 - - - - - - -
28/11:00pm 28.0 ESE 23 28 1014.3 - 0.0 - - - - - - -
28/10:30pm 28.1 ESE 24 28 1014.3 - 0.0 - - - - - - -
28/10:00pm 28.6 ESE 23 27 1014.4 - 0.0 - - - - - - -
28/09:30pm 28.4 E 22 27 1014.1 - 0.0 - - - - - - -
28/09:00pm 28.2 E 21 26 1013.9 - 0.0 - - - - - - -
28/08:30pm 28.1 E 20 25 1013.5 - 0.0 - - - - - - -
28/08:00pm 28.3 E 21 25 1013.2 - 0.0 - - - - - - -
28/07:30pm 28.3 E 21 24 1012.7 - 0.0 - - - - - - -
28/07:00pm 28.2 E 22 26 1012.5 - 0.0 - - - - - - -
28/06:30pm 28.2 E 21 25 1012.2 - 0.0 - - - - - - -
28/06:00pm 28.6 E 22 25 1011.9 - 0.0 - - - - - - -
28/05:30pm 28.6 E 22 25 1011.6 - 0.0 - - - - - - -
28/05:00pm 28.5 E 21 25 1011.3 - 0.0 - - - - - - -
28/04:30pm 28.8 ESE 23 27 1011.2 - 0.0 - - - - - - -
28/04:00pm 28.7 ESE 22 25 1011.3 - 0.0 - - - - - - -
28/03:30pm 28.6 ESE 23 27 1011.2 - 0.0 - - - - - - -
28/03:00pm 28.6 ESE 25 29 1011.3 - 0.0 - - - - - - -
28/02:30pm 28.5 ESE 23 27 1011.6 - 0.0 - - - - - - -
28/02:00pm 28.8 ESE 23 27 1011.9 - 0.0 - - - - - - -
28/01:30pm 29.0 ESE 23 28 1012.4 - 0.0 - - - - - - -
28/01:00pm 28.6 ESE 23 27 1012.7 - 0.0 - - - - - - -
28/12:30pm 28.0 ESE 24 27 1013.2 - 0.0 - - - - - - -
28/12:00pm 27.9 ESE 24 28 1013.7 - 0.0 - - - - - - -
28/11:30am 28.3 ESE 23 26 1013.9 - 0.0 - - - - - - -
28/11:00am 27.9 ESE 23 27 1014.1 - 0.0 - - - - - - -
28/10:30am 27.6 ESE 23 28 1014.3 - 0.0 - - - - - - -
28/10:00am 27.9 ESE 25 30 1014.2 - 0.0 - - - - - - -
28/09:30am 27.8 ESE 23 29 1014.1 - 0.0 - - - - - - -
28/09:00am 27.3 ESE 25 29 1013.9 - 0.0 - - - - - - -
28/08:30am 27.0 ESE 23 27 1013.7 - 0.0 - - - - - - -
28/08:00am 27.2 ESE 24 29 1013.4 - 0.0 - - - - - - -
28/07:30am 26.8 ESE 23 27 1013.1 - 0.0 - - - - - - -
28/07:00am 26.8 ESE 24 28 1012.9 - 0.0 - - - - - - -
28/06:30am 26.7 E 24 29 1012.6 - 0.0 - - - - - - -
28/06:00am 26.5 ESE 22 26 1012.3 - 0.0 - - - - - - -
28/05:30am 26.8 ESE 22 26 1012.1 - 0.0 - - - - - - -
28/05:00am 26.7 ESE 20 25 1012.0 - 0.0 - - - - - - -
28/04:30am 27.0 ESE 20 26 1011.8 - 0.0 - - - - - - -
28/04:00am 27.0 ESE 19 23 1011.8 - 0.0 - - - - - - -
28/03:30am 27.1 ESE 19 24 1012.0 - 0.0 - - - - - - -
28/03:00am 27.4 ESE 21 25 1012.1 - 0.0 - - - - - - -
28/02:30am 27.6 ESE 20 23 1012.4 - 0.0 - - - - - - -
28/02:00am 27.8 E 21 24 1012.6 - 0.0 - - - - - - -
28/01:30am 27.9 E 19 22 1012.9 - 0.0 - - - - - - -
28/01:00am 27.7 E 18 21 1013.0 - 0.0 - - - - - - -
28/12:30am 27.8 E 17 20 1013.0 - 0.0 - - - - - - -
28/12:00am 27.9 E 18 20 1013.1 - 0.0 - - - - - - -
 
Date/Time
CST
Temp
°C
Wind Pressure Rain since
9am
mm
Weather Cloud Vis
km
Sea
Height
m
Swell
Dir  Spd
kts
Gust
kts
hPa Trend Height
m
Period
s
Dir
27/11:30pm 28.2 E 16 19 1013.3 - 0.0 - - - - - - -
27/11:00pm 28.3 ENE 16 19 1013.4 - 0.0 - - - - - - -
27/10:30pm 28.3 ENE 18 21 1013.3 - 0.0 - - - - - - -
27/10:00pm 28.2 ENE 18 21 1013.3 - 0.0 - - - - - - -
27/09:30pm 28.2 ENE 19 21 1013.2 - 0.0 - - - - - - -
27/09:00pm 28.1 ENE 18 21 1012.9 - 0.0 - - - - - - -
27/08:30pm 28.1 ENE 19 21 1012.7 - 0.0 - - - - - - -
27/08:00pm 28.0 ENE 20 23 1012.5 - 0.0 - - - - - - -
27/07:30pm 28.0 ENE 20 24 1012.3 - 0.0 - - - - - - -
27/07:00pm 27.9 E 20 23 1012.0 - 0.0 - - - - - - -
27/06:30pm 27.8 E 20 24 1011.8 - 0.0 - - - - - - -
27/06:00pm 27.9 E 19 22 1011.6 - 0.0 - - - - - - -
27/05:30pm 28.1 E 21 23 1011.2 - 0.0 - - - - - - -
27/05:00pm 28.3 E 21 24 1011.0 - 0.0 - - - - - - -
27/04:30pm 28.9 E 19 22 1010.7 - 0.0 - - - - - - -
27/04:00pm 28.8 E 18 20 1010.7 - 0.0 - - - - - - -
27/03:30pm 28.5 E 17 20 1010.7 - 0.0 - - - - - - -
27/03:00pm 28.7 E 17 20 1010.8 - 0.0 - - - - - - -
27/02:30pm 28.9 E 18 20 1011.0 - 0.0 - - - - - - -

Other Formats:

Comma delimited format used in spreadsheet applications
http://www.bom.gov.au/fwo/IDD60701/IDD60701.94135.axf

JavaScript Object Notation format (JSON) in row-major order
http://www.bom.gov.au/fwo/IDD60701/IDD60701.94135.json